Time;durP1;ratioP1;P1;durP2;ratioP2;P2;SDS_P1;SDS_P2;PMS_P1;PMS_P2;Temp;Humidity;BMP_temperature;BMP_pressure;BME280_temperature;BME280_humidity;BME280_pressure;Samples;Min_cycle;Max_cycle;Signal;HPM_P1;HPM_P2
2022/08/22 00:01:00;;;;;;;5.45;1.70;;;;;;;15.92;100.00;99575.21;1695303;82;20910;-62
2022/08/22 00:03:48;;;;;;;2.50;1.47;;;;;;;15.92;100.00;99575.21;1718634;82;20923;-63
2022/08/22 00:06:26;;;;;;;8.13;1.75;;;;;;;15.90;100.00;99567.41;1701051;84;20948;-62
2022/08/22 00:09:30;;;;;;;2.77;2.00;;;;;;;15.86;100.00;99569.42;1703050;82;21109;-62
2022/08/22 00:12:35;;;;;;;4.70;1.50;;;;;;;15.88;100.00;99570.17;1705430;83;20961;-62
2022/08/22 00:15:37;;;;;;;5.35;1.80;;;;;;;15.89;100.00;99571.84;1701380;82;20961;-62
2022/08/22 00:18:33;;;;;;;4.42;1.65;;;;;;;15.92;100.00;99567.31;1706069;83;20972;-62
2022/08/22 00:21:13;;;;;;;3.50;1.60;;;;;;;15.90;100.00;99564.77;1660514;84;21606;-62
2022/08/22 00:24:09;;;;;;;3.80;1.60;;;;;;;15.88;100.00;99564.91;1661116;85;21226;-62
2022/08/22 00:26:50;;;;;;;3.30;2.00;;;;;;;15.93;100.00;99568.98;1666447;84;20974;-62
2022/08/22 00:29:24;;;;;;;6.12;1.50;;;;;;;15.95;100.00;99577.62;1654055;85;20975;-62
2022/08/22 00:32:19;;;;;;;4.50;1.42;;;;;;;15.97;100.00;99571.77;1661241;85;20938;-62
2022/08/22 00:35:19;;;;;;;3.40;1.40;;;;;;;15.99;100.00;99581.70;1664506;84;21513;-62
2022/08/22 00:38:03;;;;;;;3.50;1.75;;;;;;;16.03;100.00;99577.91;1666190;85;21075;-62
2022/08/22 00:40:53;;;;;;;6.97;1.67;;;;;;;16.04;100.00;99579.58;1654535;85;20970;-62
2022/08/22 00:44:03;;;;;;;2.83;1.47;;;;;;;16.09;100.00;99581.41;1656791;85;20954;-62
2022/08/22 00:46:47;;;;;;;4.90;2.10;;;;;;;16.08;100.00;99581.06;1656481;85;20978;-62
2022/08/22 00:49:41;;;;;;;5.08;1.70;;;;;;;16.13;100.00;99580.23;1659867;85;21570;-62
2022/08/22 00:52:40;;;;;;;6.37;1.55;;;;;;;16.13;100.00;99578.91;1661565;84;21978;-62
2022/08/22 00:55:29;;;;;;;3.98;1.60;;;;;;;16.10;100.00;99575.18;1658599;85;21010;-62
2022/08/22 00:58:24;;;;;;;5.62;1.85;;;;;;;16.11;100.00;99570.30;1701748;83;20901;-62
2022/08/22 01:00:59;;;;;;;3.42;1.70;;;;;;;16.14;100.00;99575.34;1704064;82;21500;-62
2022/08/22 01:04:01;;;;;;;2.15;1.57;;;;;;;16.14;100.00;99570.08;1706910;82;20887;-62
2022/08/22 01:06:48;;;;;;;4.75;1.70;;;;;;;16.15;100.00;99571.74;1710254;82;21045;-62
2022/08/22 01:09:44;;;;;;;5.55;1.50;;;;;;;16.12;100.00;99569.34;1706611;82;21436;-62
2022/08/22 01:12:31;;;;;;;3.45;1.62;;;;;;;16.13;100.00;99572.33;1710931;82;21030;-62
2022/08/22 01:15:01;;;;;;;;;;;;;;;16.10;100.00;99569.91;1708544;82;20929;-62
2022/08/22 01:18:00;;;;;;;4.47;1.90;;;;;;;16.05;100.00;99569.44;1697718;84;20146;-62
2022/08/22 01:20:51;;;;;;;4.10;1.42;;;;;;;15.96;100.00;99567.44;1713775;82;21057;-62
2022/08/22 01:24:08;;;;;;;2.98;1.85;;;;;;;15.89;100.00;99570.52;1706737;82;20965;-62
2022/08/22 01:27:11;;;;;;;6.12;1.80;;;;;;;15.87;100.00;99572.41;1703843;82;21483;-62
2022/08/22 01:30:03;;;;;;;2.70;1.35;;;;;;;15.90;100.00;99575.30;1703787;82;20933;-62
2022/08/22 01:32:46;;;;;;;4.95;1.80;;;;;;;15.93;100.00;99574.25;1700976;82;20902;-62
2022/08/22 01:35:33;;;;;;;4.42;1.50;;;;;;;15.97;100.00;99567.83;1614749;87;21224;-63
2022/08/22 01:38:17;;;;;;;2.47;1.50;;;;;;;16.00;100.00;99568.92;1630340;87;20967;-62
2022/08/22 01:41:05;;;;;;;6.03;1.57;;;;;;;15.97;100.00;99569.14;1636000;86;20908;-62
2022/08/22 01:44:21;;;;;;;4.45;1.40;;;;;;;15.97;100.00;99575.73;1652437;84;20947;-62
2022/08/22 01:46:59;;;;;;;4.00;1.70;;;;;;;15.95;100.00;99574.98;1640265;87;21559;-62
2022/08/22 01:49:43;;;;;;;5.45;1.65;;;;;;;15.92;100.00;99577.84;1665640;84;21530;-62
2022/08/22 01:52:41;;;;;;;6.37;2.27;;;;;;;15.89;100.00;99577.11;1662516;84;20962;-62
2022/08/22 01:55:40;;;;;;;3.12;1.40;;;;;;;15.86;100.00;99577.80;1646129;85;21510;-62
2022/08/22 01:58:17;;;;;;;12.73;1.85;;;;;;;15.80;100.00;99581.72;1649043;85;20973;-62
2022/08/22 02:01:19;;;;;;;5.22;1.70;;;;;;;15.81;100.00;99579.44;1639219;87;21598;-62
2022/08/22 02:04:15;;;;;;;3.02;1.47;;;;;;;15.87;100.00;99586.89;1637427;87;22034;-62
2022/08/22 02:07:05;;;;;;;4.47;1.42;;;;;;;15.92;100.00;99583.11;1641173;85;20955;-62
2022/08/22 02:10:08;;;;;;;3.20;1.72;;;;;;;15.95;100.00;99588.16;1655860;85;20964;-62
2022/08/22 02:12:46;;;;;;;3.80;1.47;;;;;;;15.97;100.00;99586.27;1625224;87;21019;-62
2022/08/22 02:15:39;;;;;;;5.25;1.65;;;;;;;16.01;100.00;99598.23;1620650;87;20997;-62
2022/08/22 02:18:11;;;;;;;2.77;1.57;;;;;;;16.02;100.00;99597.28;1607170;87;21027;-62
2022/08/22 02:21:15;;;;;;;9.68;1.98;;;;;;;16.01;100.00;99598.23;1632462;87;20971;-62
2022/08/22 02:23:49;;;;;;;2.80;1.50;;;;;;;16.01;100.00;99595.61;1622522;87;21562;-62
2022/08/22 02:26:27;;;;;;;4.78;1.60;;;;;;;16.00;100.00;99599.20;1638418;85;21000;-62
2022/08/22 02:29:24;;;;;;;2.20;1.50;;;;;;;16.00;100.00;99596.57;1650222;86;21141;-62
2022/08/22 02:32:21;;;;;;;3.12;1.65;;;;;;;16.02;100.00;99602.55;1633115;86;21081;-62
2022/08/22 02:35:08;;;;;;;4.15;1.37;;;;;;;16.05;100.00;99602.36;1645144;86;20964;-62
2022/08/22 02:37:45;;;;;;;5.03;1.80;;;;;;;16.03;100.00;99598.98;1631097;86;20920;-62
2022/08/22 02:40:31;;;;;;;;;;;;;;;16.01;100.00;99596.92;1645266;86;21008;-62
2022/08/22 02:43:23;;;;;;;4.97;1.72;;;;;;;15.98;100.00;99604.56;1630583;86;20114;-62
2022/08/22 02:46:13;;;;;;;3.42;1.72;;;;;;;15.93;100.00;99603.21;1638500;86;22054;-62
2022/08/22 02:49:04;;;;;;;3.83;1.55;;;;;;;15.93;100.00;99607.16;1641696;86;20965;-62
2022/08/22 02:51:45;;;;;;;5.08;2.00;;;;;;;15.88;100.00;99603.08;1655972;83;20923;-62
2022/08/22 02:54:46;;;;;;;3.30;1.60;;;;;;;15.84;100.00;99600.28;1728143;82;20923;-62
2022/08/22 02:57:39;;;;;;;5.25;1.87;;;;;;;15.82;100.00;99608.78;1729117;81;21556;-62
2022/08/22 03:00:16;;;;;;;3.10;1.47;;;;;;;15.82;100.00;99610.10;1734862;81;21010;-62
2022/08/22 03:02:51;;;;;;;4.50;2.08;;;;;;;15.84;100.00;99608.17;1729001;81;20944;-62
2022/08/22 03:05:41;;;;;;;4.40;2.08;;;;;;;15.87;100.00;99602.69;1725318;81;20987;-62
2022/08/22 03:08:26;;;;;;;8.73;1.80;;;;;;;15.89;100.00;99602.12;1686785;83;21451;-62
2022/08/22 03:11:01;;;;;;;5.42;2.00;;;;;;;15.94;100.00;99591.75;1720779;82;20946;-62
2022/08/22 03:13:54;;;;;;;3.70;1.32;;;;;;;15.99;100.00;99596.19;1728343;82;20976;-62
2022/08/22 03:16:32;;;;;;;5.72;2.12;;;;;;;16.01;100.00;99598.23;1614990;88;20946;-62
2022/08/22 03:19:25;;;;;;;2.58;1.52;;;;;;;16.00;100.00;99604.47;1610135;87;20986;-62
2022/08/22 03:22:09;;;;;;;4.75;2.02;;;;;;;15.94;100.00;99606.23;1611636;88;20981;-62
2022/08/22 03:24:56;;;;;;;3.25;1.57;;;;;;;15.96;100.00;99605.63;1608334;87;21041;-62
2022/08/22 03:27:26;;;;;;;;;;;;;;;15.95;100.00;99602.16;1596398;88;21083;-62
2022/08/22 03:29:57;;;;;;;2.12;1.70;;;;;;;16.00;100.00;99599.20;1611580;88;20167;-62
2022/08/22 03:32:49;;;;;;;2.83;1.50;;;;;;;16.00;100.00;99607.10;1614884;88;20995;-62
2022/08/22 03:35:48;;;;;;;1.85;1.40;;;;;;;16.02;100.00;99613.08;1615552;88;20907;-62
2022/08/22 03:38:34;;;;;;;5.45;2.02;;;;;;;16.01;100.00;99614.88;1614135;88;21530;-62
2022/08/22 03:41:44;;;;;;;4.05;1.57;;;;;;;16.02;100.00;99613.95;1624490;86;21073;-62
2022/08/22 03:44:43;;;;;;;2.55;1.57;;;;;;;16.02;100.00;99607.81;1618276;87;21001;-62
2022/08/22 03:47:33;;;;;;;2.83;1.60;;;;;;;15.94;100.00;99610.18;1615078;87;21010;-62
2022/08/22 03:50:16;;;;;;;6.75;2.10;;;;;;;15.83;100.00;99609.14;1617661;87;21014;-62
2022/08/22 03:53:23;;;;;;;4.67;1.95;;;;;;;15.78;100.00;99611.25;1628884;84;20998;-62
2022/08/22 03:56:45;;;;;;;5.03;2.27;;;;;;;15.87;100.00;99610.59;1700467;84;21096;-62
2022/08/22 03:59:36;;;;;;;4.65;1.82;;;;;;;16.04;100.00;99620.41;1691273;83;20890;-62
2022/08/22 04:02:29;;;;;;;5.62;2.50;;;;;;;16.14;100.00;99612.22;1698085;84;21488;-62
2022/08/22 04:05:35;;;;;;;6.33;2.02;;;;;;;16.24;100.00;99614.53;1697869;84;20977;-62
2022/08/22 04:08:13;;;;;;;12.37;2.50;;;;;;;16.23;100.00;99616.81;1684795;83;21507;-62
2022/08/22 04:11:07;;;;;;;6.22;1.52;;;;;;;16.17;100.00;99615.95;1684224;84;22122;-62
2022/08/22 04:13:54;;;;;;;13.90;2.37;;;;;;;16.17;100.00;99617.27;1688619;84;20957;-62
2022/08/22 04:16:27;;;;;;;;;;;;;;;16.26;100.00;99612.64;1703023;84;20891;-62
2022/08/22 04:19:19;;;;;;;4.45;2.25;;;;;;;16.35;100.00;99621.66;1695525;84;20118;-62
2022/08/22 04:22:13;;;;;;;6.45;2.60;;;;;;;16.48;100.00;99620.30;1699444;84;20938;-61
2022/08/22 04:25:03;;;;;;;5.92;2.35;;;;;;;16.67;100.00;99623.27;1700317;84;21565;-61
2022/08/22 04:27:44;;;;;;;8.88;2.20;;;;;;;16.86;100.00;99620.14;1699344;84;20957;-61
2022/08/22 04:30:31;;;;;;;5.00;1.90;;;;;;;16.99;100.00;99629.27;1699487;84;20890;-61
2022/08/22 04:33:18;;;;;;;10.20;2.45;;;;;;;17.15;100.00;99636.39;1700468;84;20985;-61
2022/08/22 04:36:12;;;;;;;9.05;2.20;;;;;;;17.11;100.00;99632.32;1700570;84;21500;-61
2022/08/22 04:39:02;;;;;;;9.20;2.12;;;;;;;17.15;100.00;99639.03;1620890;87;20969;-63
2022/08/22 04:41:55;;;;;;;3.92;1.57;;;;;;;17.16;100.00;99628.83;1616705;87;21815;-62
2022/08/22 04:44:38;;;;;;;8.28;1.85;;;;;;;17.13;100.00;99638.30;1634015;86;21468;-62
2022/08/22 04:47:19;;;;;;;11.90;2.62;;;;;;;17.12;100.00;99636.63;1619274;87;21022;-61
2022/08/22 04:49:53;;;;;;;3.75;1.92;;;;;;;17.22;100.00;99637.63;1649299;85;21463;-61
2022/08/22 04:52:41;;;;;;;9.55;2.17;;;;;;;17.27;100.00;99637.25;1618491;87;21343;-61
2022/08/22 04:55:40;;;;;;;5.33;2.08;;;;;;;17.36;100.00;99638.34;1643998;85;20918;-61
2022/08/22 04:59:01;;;;;;;4.28;2.05;;;;;;;17.39;100.00;99635.46;1571968;90;21463;-62
2022/08/22 05:01:53;;;;;;;5.05;1.50;;;;;;;17.42;100.00;99633.45;1590230;89;20925;-62
2022/08/22 05:04:31;;;;;;;5.30;1.57;;;;;;;17.36;100.00;99637.02;1587807;88;20966;-61
2022/08/22 05:07:27;;;;;;;4.87;1.50;;;;;;;17.30;100.00;99641.45;1590602;88;21121;-63
2022/08/22 05:10:05;;;;;;;6.70;2.20;;;;;;;17.26;100.00;99650.58;1566212;90;20946;-62
2022/08/22 05:12:46;;;;;;;3.37;1.60;;;;;;;17.26;100.00;99643.50;1587166;88;20982;-63
2022/08/22 05:15:34;;;;;;;7.83;1.92;;;;;;;17.25;100.00;99643.59;1650504;84;21614;-63
2022/08/22 05:18:09;;;;;;;5.62;1.92;;;;;;;17.28;100.00;99646.00;1649966;84;20894;-63
2022/08/22 05:20:39;;;;;;;7.90;2.60;;;;;;;17.45;100.00;99645.58;1686397;84;21067;-62
2022/08/22 05:23:13;;;;;;;5.62;1.82;;;;;;;17.53;100.00;99652.42;1686750;84;21071;-63
2022/08/22 05:25:42;;;;;;;4.67;2.00;;;;;;;17.53;100.00;99651.11;1688211;84;20971;-63
2022/08/22 05:28:23;;;;;;;3.05;1.57;;;;;;;17.59;100.00;99655.91;1682291;84;20867;-63
2022/08/22 05:30:50;;;;;;;5.67;1.80;;;;;;;17.70;100.00;99649.80;1690799;84;20925;-64
2022/08/22 05:33:37;;;;;;;4.35;2.00;;;;;;;17.78;100.00;99652.68;1690335;84;21187;-64
2022/08/22 05:36:12;;;;;;;7.25;2.15;;;;;;;17.83;100.00;99654.97;1720551;82;20933;-63
2022/08/22 05:38:50;;;;;;;11.88;2.77;;;;;;;17.94;100.00;99656.29;1727190;82;20914;-64
2022/08/22 05:41:26;;;;;;;7.70;2.55;;;;;;;18.13;100.00;99656.16;1722778;82;20986;-64
2022/08/22 05:43:53;;;;;;;6.25;1.95;;;;;;;18.26;100.00;99660.80;1727611;82;21479;-63
2022/08/22 05:46:38;;;;;;;5.72;2.08;;;;;;;18.27;100.00;99674.39;1728506;81;21103;-63
2022/08/22 05:49:18;;;;;;;6.12;1.92;;;;;;;18.25;100.00;99666.58;1728120;82;20874;-63
2022/08/22 05:52:19;;;;;;;8.68;2.20;;;;;;;18.24;100.00;99675.97;1725913;81;20930;-64
2022/08/22 05:54:52;;;;;;;9.83;2.45;;;;;;;18.25;100.00;99676.31;1729753;82;20972;-63
2022/08/22 05:57:33;;;;;;;4.15;2.35;;;;;;;18.33;100.00;99673.90;1730155;82;20957;-62
2022/08/22 06:00:11;;;;;;;5.40;2.00;;;;;;;18.39;100.00;99676.05;1732584;81;21015;-62
2022/08/22 06:03:12;;;;;;;5.92;2.27;;;;;;;18.86;100.00;99676.66;1725623;83;20972;-63
2022/08/22 06:05:43;;;;;;;6.33;2.10;;;;;;;19.55;100.00;99677.95;1728722;82;20890;-62
2022/08/22 06:08:22;;;;;;;3.90;2.20;;;;;;;19.82;100.00;99679.59;1729667;82;20922;-62
2022/08/22 06:11:00;;;;;;;4.72;2.00;;;;;;;19.90;100.00;99686.39;1727202;81;20945;-62
2022/08/22 06:13:41;;;;;;;7.42;2.15;;;;;;;19.87;100.00;99684.50;1729597;82;21244;-62
2022/08/22 06:16:19;;;;;;;4.20;2.17;;;;;;;20.01;100.00;99681.98;1699386;83;20905;-62
2022/08/22 06:18:50;;;;;;;4.12;2.05;;;;;;;20.16;100.00;99680.63;1729468;82;21067;-61
2022/08/22 06:21:36;;;;;;;6.45;2.33;;;;;;;20.13;100.00;99686.20;1729569;82;21431;-61
2022/08/22 06:24:07;;;;;;;4.83;2.35;;;;;;;20.12;100.00;99684.53;1729689;83;20930;-62
2022/08/22 06:26:39;;;;;;;3.70;2.00;;;;;;;20.30;100.00;99690.02;1730146;81;21699;-63
2022/08/22 06:29:09;;;;;;;4.78;2.17;;;;;;;20.32;100.00;99691.56;1726924;81;21902;-61
2022/08/22 06:31:41;;;;;;;4.05;2.42;;;;;;;20.28;100.00;99686.69;1727768;82;20906;-61
2022/08/22 06:34:33;;;;;;;6.28;2.90;;;;;;;20.46;100.00;99689.51;1728238;81;20918;-61
2022/08/22 06:37:08;;;;;;;7.60;2.42;;;;;;;20.49;100.00;99689.23;1731293;81;20960;-62
2022/08/22 06:39:40;;;;;;;4.50;2.15;;;;;;;20.73;100.00;99692.38;1728923;82;21000;-62
2022/08/22 06:42:15;;;;;;;5.92;2.22;;;;;;;21.43;100.00;99693.57;1707976;83;21001;-63
2022/08/22 06:44:56;;;;;;;5.65;2.02;;;;;;;22.22;100.00;99685.69;1706006;82;21049;-62
2022/08/22 06:47:55;;;;;;;4.65;1.72;;;;;;;22.75;100.00;99688.92;1694194;83;20976;-61
2022/08/22 06:50:33;;;;;;;3.55;1.47;;;;;;;22.89;99.52;99691.05;1691426;83;20938;-61
2022/08/22 06:53:19;;;;;;;3.92;1.80;;;;;;;23.00;99.36;99697.52;1695656;84;22039;-61
2022/08/22 06:55:56;;;;;;;4.85;2.08;;;;;;;22.95;98.21;99698.45;1697019;84;28847;-61
2022/08/22 06:58:29;;;;;;;;;;;;;;;23.10;99.49;99700.58;1699995;83;20906;-61
2022/08/22 07:00:59;;;;;;;5.65;2.17;;;;;;;23.44;97.75;99709.52;1706122;83;20131;-62
2022/08/22 07:03:36;;;;;;;5.25;2.10;;;;;;;23.58;98.04;99712.13;1702339;83;20910;-62
2022/08/22 07:06:03;;;;;;;5.12;1.92;;;;;;;23.87;95.47;99706.48;1692927;84;21069;-61
2022/08/22 07:08:33;;;;;;;6.22;2.35;;;;;;;24.03;92.35;99708.88;1695473;84;21502;-63
2022/08/22 07:11:23;;;;;;;4.42;2.00;;;;;;;23.87;92.08;99707.81;1700678;83;20953;-62
2022/08/22 07:14:00;;;;;;;7.20;2.00;;;;;;;23.85;90.79;99707.12;1695332;84;20922;-61
2022/08/22 07:16:50;;;;;;;5.78;2.00;;;;;;;23.53;91.59;99705.59;1685742;84;20990;-61
2022/08/22 07:19:37;;;;;;;5.55;2.05;;;;;;;23.59;92.25;99711.62;1634200;86;21717;-61
2022/08/22 07:22:15;;;;;;;4.35;1.77;;;;;;;23.68;93.46;99717.33;1641421;86;21000;-61
2022/08/22 07:24:49;;;;;;;4.87;2.02;;;;;;;23.83;89.63;99714.95;1640480;86;20977;-61
2022/08/22 07:27:58;;;;;;;10.45;2.00;;;;;;;23.70;90.57;99723.35;1642408;86;21495;-62
2022/08/22 07:30:30;;;;;;;4.20;1.90;;;;;;;23.35;89.51;99725.59;1637908;86;21513;-61
2022/08/22 07:33:05;;;;;;;5.20;1.90;;;;;;;23.45;91.53;99725.02;1641432;86;21077;-61
2022/08/22 07:35:45;;;;;;;7.05;2.12;;;;;;;23.30;86.99;99727.41;1642431;86;20981;-61
2022/08/22 07:38:42;;;;;;;8.25;2.10;;;;;;;22.99;87.70;99722.48;1643357;86;21016;-62
2022/08/22 07:41:19;;;;;;;6.62;1.80;;;;;;;22.98;89.90;99718.12;1642295;86;20956;-61
2022/08/22 07:44:00;;;;;;;6.37;2.00;;;;;;;22.79;88.45;99723.55;1648311;86;21491;-64
2022/08/22 07:46:38;;;;;;;4.87;2.20;;;;;;;22.63;86.89;99722.05;1636541;86;21129;-62
2022/08/22 07:49:20;;;;;;;6.55;2.12;;;;;;;22.44;88.44;99722.53;1635076;87;21011;-62
2022/08/22 07:51:55;;;;;;;5.35;2.12;;;;;;;22.58;90.71;99717.70;1622895;86;20988;-61
2022/08/22 07:54:51;;;;;;;5.92;2.27;;;;;;;22.77;89.75;99720.23;1641244;86;20874;-61
2022/08/22 07:57:37;;;;;;;7.80;2.30;;;;;;;22.49;86.01;99722.92;1708907;83;20999;-61
2022/08/22 08:00:19;;;;;;;4.40;2.02;;;;;;;22.42;90.33;99721.83;1729348;82;21925;-61
2022/08/22 08:02:52;;;;;;;6.78;2.17;;;;;;;22.45;87.35;99722.86;1727423;82;20902;-61
2022/08/22 08:05:22;;;;;;;4.75;2.02;;;;;;;22.50;87.45;99719.27;1726095;81;21637;-61
2022/08/22 08:07:53;;;;;;;3.80;1.50;;;;;;;22.64;89.60;99715.76;1697276;83;20977;-62
2022/08/22 08:10:30;;;;;;;4.03;1.62;;;;;;;22.94;90.26;99726.05;1729264;81;21005;-61
2022/08/22 08:13:05;;;;;;;3.80;1.85;;;;;;;23.27;88.60;99726.85;1730754;81;21019;-62
2022/08/22 08:15:35;;;;;;;9.85;1.80;;;;;;;23.43;86.65;99724.32;1725568;82;20946;-61
2022/08/22 08:18:06;;;;;;;6.10;1.90;;;;;;;23.43;86.24;99733.14;1704006;82;21554;-62
2022/08/22 08:20:35;;;;;;;5.67;1.62;;;;;;;23.61;88.05;99722.94;1727795;82;20886;-61
2022/08/22 08:23:08;;;;;;;4.85;1.87;;;;;;;23.92;88.86;99720.69;1727331;82;20950;-62
2022/08/22 08:25:56;;;;;;;7.72;1.98;;;;;;;24.06;86.16;99723.26;1722790;82;21115;-63
2022/08/22 08:28:36;;;;;;;4.25;1.75;;;;;;;24.40;88.57;99711.72;1725136;82;20926;-62
2022/08/22 08:31:20;;;;;;;5.60;2.17;;;;;;;24.73;87.69;99716.18;1726777;82;20910;-63
2022/08/22 08:33:50;;;;;;;4.22;1.60;;;;;;;25.06;86.26;99716.20;1727570;82;20936;-62
2022/08/22 08:36:27;;;;;;;8.25;2.30;;;;;;;24.49;81.26;99716.11;1728182;82;20969;-62
2022/08/22 08:39:02;;;;;;;6.78;2.00;;;;;;;23.56;78.80;99734.59;1725303;82;20987;-62
2022/08/22 08:42:16;;;;;;;3.52;1.67;;;;;;;23.07;81.69;99731.51;1724767;82;20909;-63
2022/08/22 08:44:54;;;;;;;3.92;1.72;;;;;;;23.23;82.84;99731.66;1723764;82;20933;-64
2022/08/22 08:47:44;;;;;;;7.58;2.05;;;;;;;23.28;79.95;99733.38;1698281;84;20942;-62
2022/08/22 08:50:32;;;;;;;6.15;2.10;;;;;;;23.07;80.47;99734.17;1701843;84;20958;-62
2022/08/22 08:53:45;;;;;;;7.22;2.02;;;;;;;22.92;80.47;99730.69;1704816;84;21069;-63
2022/08/22 08:56:39;;;;;;;3.42;1.50;;;;;;;22.79;77.44;99739.02;1703314;84;21111;-62
2022/08/22 08:59:43;;;;;;;4.90;1.37;;;;;;;23.00;80.32;99742.78;1705042;83;21462;-63
2022/08/22 09:02:47;;;;;;;4.40;2.00;;;;;;;23.28;77.32;99733.87;1707147;83;20963;-62
2022/08/22 09:05:40;;;;;;;12.65;2.37;;;;;;;23.46;80.46;99735.50;1702271;84;20926;-61
2022/08/22 09:08:48;;;;;;;2.30;1.47;;;;;;;23.52;78.13;99735.88;1726834;83;20988;-61
2022/08/22 09:11:38;;;;;;;6.53;2.70;;;;;;;23.49;78.28;99736.19;1729298;81;21463;-62
2022/08/22 09:14:45;;;;;;;8.08;2.77;;;;;;;23.61;80.00;99733.13;1728533;83;20956;-62
2022/08/22 09:17:49;;;;;;;5.05;1.75;;;;;;;23.61;79.29;99733.59;1730164;82;20944;-62
2022/08/22 09:20:48;;;;;;;7.45;2.00;;;;;;;23.23;75.05;99738.31;1669960;84;21693;-62
2022/08/22 09:23:49;;;;;;;6.90;1.95;;;;;;;22.91;74.90;99733.02;1641590;86;21068;-62
2022/08/22 09:26:54;;;;;;;4.67;1.60;;;;;;;22.89;76.50;99735.48;1666729;84;20924;-62
2022/08/22 09:29:32;;;;;;;2.52;1.55;;;;;;;22.95;76.64;99728.21;1624128;85;21033;-62
2022/08/22 09:32:28;;;;;;;7.80;1.60;;;;;;;22.98;76.41;99722.11;1664784;84;20958;-62
2022/08/22 09:35:22;;;;;;;2.45;1.35;;;;;;;22.95;74.74;99730.41;1637345;86;21070;-62
2022/08/22 09:38:12;;;;;;;5.08;1.82;;;;;;;22.96;75.68;99746.71;1670663;84;21129;-62
2022/08/22 09:41:14;;;;;;;4.30;1.47;;;;;;;23.08;75.35;99725.19;1624171;87;20998;-63
2022/08/22 09:43:46;;;;;;;7.20;1.72;;;;;;;23.13;74.74;99728.23;1645655;86;20975;-62
2022/08/22 09:46:26;;;;;;;7.28;1.55;;;;;;;22.98;74.99;99723.44;1662671;84;21417;-62
2022/08/22 09:49:12;;;;;;;5.00;1.62;;;;;;;22.87;71.96;99726.30;1666513;84;20933;-62
2022/08/22 09:51:56;;;;;;;4.97;1.60;;;;;;;22.88;75.18;99738.64;1661918;85;21059;-62
2022/08/22 09:54:36;;;;;;;4.42;1.25;;;;;;;23.10;75.11;99736.53;1666043;85;21494;-62
2022/08/22 09:57:38;;;;;;;4.08;1.70;;;;;;;23.12;72.95;99739.88;1668193;84;20962;-62
2022/08/22 10:00:12;;;;;;;5.62;1.80;;;;;;;22.85;73.34;99740.75;1698335;84;20954;-62
2022/08/22 10:03:09;;;;;;;3.83;1.30;;;;;;;22.84;73.32;99747.91;1686194;82;20953;-63
2022/08/22 10:06:00;;;;;;;;;;;;;;;22.92;74.31;99747.98;1646689;85;21199;-63
2022/08/22 10:08:44;;;;;;;3.83;1.87;;;;;;;23.11;72.96;99756.36;1623082;87;20481;-61
2022/08/22 10:11:28;;;;;;;4.17;1.52;;;;;;;23.19;73.87;99752.45;1625449;86;21507;-63
2022/08/22 10:14:19;;;;;;;5.83;1.22;;;;;;;23.32;74.05;99746.70;1615787;87;21000;-64
2022/08/22 10:17:19;;;;;;;7.40;1.35;;;;;;;23.24;71.87;99751.47;1624436;87;21512;-64
2022/08/22 10:20:00;;;;;;;3.67;1.60;;;;;;;23.16;70.89;99754.55;1628068;87;21572;-64
2022/08/22 10:22:44;;;;;;;3.62;1.25;;;;;;;23.06;71.29;99761.30;1631570;86;21482;-63
2022/08/22 10:25:24;;;;;;;3.90;1.60;;;;;;;23.05;71.85;99760.11;1565281;90;21072;-63
2022/08/22 10:28:17;;;;;;;5.42;1.87;;;;;;;23.08;72.65;99759.34;1605340;87;20902;-62
2022/08/22 10:31:11;;;;;;;5.95;1.52;;;;;;;23.27;73.05;99760.98;1612619;87;21515;-64
2022/08/22 10:33:43;;;;;;;3.45;1.50;;;;;;;23.48;72.34;99766.50;1599292;87;21229;-63
2022/08/22 10:36:17;;;;;;;3.70;1.42;;;;;;;23.45;69.40;99765.81;1621308;86;20975;-62
2022/08/22 10:38:52;;;;;;;3.35;1.55;;;;;;;23.57;71.94;99758.40;1659212;84;21011;-62
2022/08/22 10:41:43;;;;;;;5.15;1.60;;;;;;;23.58;70.60;99764.56;1661514;84;21544;-64
2022/08/22 10:44:24;;;;;;;7.30;1.60;;;;;;;23.39;71.24;99770.93;1649489;84;20975;-63
2022/08/22 10:47:02;;;;;;;5.67;1.82;;;;;;;23.46;72.43;99766.14;1663713;86;21521;-62
2022/08/22 10:49:38;;;;;;;3.77;1.65;;;;;;;23.72;71.24;99765.86;1655208;84;20957;-62
2022/08/22 10:52:30;;;;;;;4.30;1.37;;;;;;;23.57;68.52;99762.90;1664136;86;20902;-63
2022/08/22 10:55:08;;;;;;;3.22;1.50;;;;;;;23.52;66.96;99762.52;1660633;84;21616;-63
2022/08/22 10:58:01;;;;;;;3.35;1.50;;;;;;;23.66;69.66;99764.63;1659563;84;20994;-63
2022/08/22 11:00:59;;;;;;;2.95;1.30;;;;;;;23.57;70.53;99760.23;1655953;84;21772;-63
2022/08/22 11:03:52;;;;;;;5.58;1.52;;;;;;;23.61;68.14;99765.58;1694754;83;20950;-63
2022/08/22 11:06:36;;;;;;;6.30;1.30;;;;;;;23.49;69.49;99768.16;1729775;81;20928;-63
2022/08/22 11:09:26;;;;;;;3.92;1.47;;;;;;;23.73;69.78;99767.05;1699472;81;20930;-63
2022/08/22 11:12:14;;;;;;;3.17;1.12;;;;;;;23.88;69.81;99757.47;1726046;82;21535;-62
2022/08/22 11:15:18;;;;;;;3.37;1.72;;;;;;;23.92;67.50;99759.82;1733899;81;22171;-62
2022/08/22 11:18:14;;;;;;;2.80;1.40;;;;;;;23.62;68.25;99763.27;1696265;83;21507;-63
2022/08/22 11:21:04;;;;;;;6.50;1.40;;;;;;;23.58;68.70;99768.56;1698691;83;21557;-62
2022/08/22 11:23:56;;;;;;;5.40;1.60;;;;;;;23.68;68.59;99765.31;1707428;82;20926;-62
2022/08/22 11:26:28;;;;;;;5.17;1.70;;;;;;;23.82;69.26;99773.27;1710717;83;20942;-62
2022/08/22 11:29:14;;;;;;;3.62;1.37;;;;;;;23.84;67.27;99770.80;1707027;82;21098;-61
2022/08/22 11:32:04;;;;;;;7.53;2.02;;;;;;;23.88;68.85;99767.30;1702626;82;20940;-62
2022/08/22 11:34:45;;;;;;;3.47;1.42;;;;;;;23.67;68.98;99767.65;1695361;83;20911;-62
2022/08/22 11:37:20;;;;;;;3.33;1.60;;;;;;;23.55;67.31;99780.86;1717799;83;20985;-62
2022/08/22 11:40:05;;;;;;;4.97;2.08;;;;;;;23.52;69.48;99768.68;1722009;82;20988;-63
2022/08/22 11:42:49;;;;;;;4.55;1.45;;;;;;;23.67;68.96;99772.98;1709299;83;21065;-62
2022/08/22 11:45:21;;;;;;;5.72;1.75;;;;;;;23.83;69.27;99769.10;1718231;82;21043;-63
2022/08/22 11:48:17;;;;;;;4.97;1.65;;;;;;;23.93;69.48;99774.34;1690434;84;20965;-63
2022/08/22 11:50:52;;;;;;;3.17;1.60;;;;;;;23.96;66.92;99767.86;1702680;83;21624;-63
2022/08/22 11:53:38;;;;;;;4.42;1.67;;;;;;;23.70;68.15;99766.00;1721179;82;20941;-63
2022/08/22 11:56:33;;;;;;;4.67;1.80;;;;;;;23.48;66.65;99769.16;1699078;83;21057;-63
2022/08/22 11:59:29;;;;;;;3.83;1.40;;;;;;;23.60;67.62;99762.59;1705101;83;20944;-63
2022/08/22 12:02:07;;;;;;;3.30;1.57;;;;;;;23.81;66.47;99763.11;1677111;84;21503;-63
2022/08/22 12:04:45;;;;;;;2.65;1.45;;;;;;;23.57;63.84;99762.90;1700910;83;20964;-62
2022/08/22 12:07:20;;;;;;;3.10;1.52;;;;;;;23.53;65.64;99764.22;1714524;82;21503;-63
2022/08/22 12:10:14;;;;;;;2.65;1.42;;;;;;;23.71;66.89;99775.69;1723008;82;21038;-62
2022/08/22 12:12:59;;;;;;;4.25;1.57;;;;;;;23.76;66.27;99761.41;1721993;82;21004;-62
2022/08/22 12:15:34;;;;;;;3.30;1.32;;;;;;;23.70;66.09;99765.17;1711591;83;21439;-62
2022/08/22 12:18:50;;;;;;;4.42;1.52;;;;;;;23.79;65.19;99763.75;1694257;83;21531;-63
2022/08/22 12:21:40;;;;;;;3.98;1.47;;;;;;;23.88;64.65;99772.14;1642239;86;20933;-62
2022/08/22 12:24:42;;;;;;;9.00;2.02;;;;;;;23.87;65.67;99765.14;1650390;85;21051;-62
2022/08/22 12:27:16;;;;;;;4.10;1.52;;;;;;;23.94;65.81;99761.84;1646805;86;20955;-63
2022/08/22 12:30:14;;;;;;;4.15;1.52;;;;;;;23.93;64.74;99768.18;1635926;86;20954;-62
2022/08/22 12:33:14;;;;;;;3.35;1.60;;;;;;;23.94;65.53;99775.17;1638485;87;21707;-62
2022/08/22 12:36:04;;;;;;;3.90;1.67;;;;;;;23.96;65.09;99770.53;1634588;86;21580;-63
2022/08/22 12:39:12;;;;;;;3.42;1.62;;;;;;;23.89;65.27;99761.83;1637523;86;21092;-62
2022/08/22 12:42:14;;;;;;;4.25;1.67;;;;;;;23.74;63.19;99772.71;1652048;85;20960;-62
2022/08/22 12:45:02;;;;;;;3.87;1.27;;;;;;;23.54;63.79;99767.20;1634007;86;21098;-63
2022/08/22 12:47:59;;;;;;;3.47;1.70;;;;;;;23.55;63.78;99763.54;1641695;85;20974;-63
2022/08/22 12:50:43;;;;;;;4.53;1.32;;;;;;;23.49;64.07;99760.17;1622062;87;20983;-63
2022/08/22 12:53:54;;;;;;;3.67;1.47;;;;;;;23.77;65.13;99757.73;1569789;90;21128;-64
2022/08/22 12:56:35;;;;;;;3.20;1.57;;;;;;;24.02;63.55;99760.56;1597347;89;21008;-62
2022/08/22 12:59:31;;;;;;;3.20;1.32;;;;;;;23.74;64.02;99762.05;1601263;87;21035;-62